Time;durP1;ratioP1;P1;durP2;ratioP2;P2;SDS_P1;SDS_P2;PMS_P1;PMS_P2;Temp;Humidity;BMP_temperature;BMP_pressure;BME280_temperature;BME280_humidity;BME280_pressure;Samples;Min_cycle;Max_cycle;Signal;HPM_P1;HPM_P2
2021/12/10 00:01:11;;;;;;;17.17;10.02;;;;;;;-11.80;72.55;101100.88;4963683;28;20031;-61
2021/12/10 00:04:00;;;;;;;19.42;10.40;;;;;;;-12.15;73.09;101040.28;4961351;29;20027;-60
2021/12/10 00:06:52;;;;;;;15.27;9.27;;;;;;;-12.21;71.93;101039.69;4961957;28;20107;-60
2021/12/10 00:09:43;;;;;;;20.98;10.13;;;;;;;-12.23;73.02;101024.59;4962023;29;20309;-59
2021/12/10 00:12:33;;;;;;;18.17;9.63;;;;;;;-11.85;71.98;101117.06;4962790;29;20027;-59
2021/12/10 00:15:23;;;;;;;16.30;9.73;;;;;;;-11.84;72.12;101106.34;4963288;28;20201;-60
2021/12/10 00:18:13;;;;;;;18.90;10.02;;;;;;;-12.03;72.28;101038.88;4962714;29;20135;-59
2021/12/10 00:21:01;;;;;;;18.40;9.68;;;;;;;-11.76;71.19;101121.13;4960783;29;20028;-61
2021/12/10 00:23:50;;;;;;;13.90;9.10;;;;;;;-11.68;71.40;101107.72;4962807;29;20126;-60
2021/12/10 00:26:37;;;;;;;16.83;9.57;;;;;;;-11.56;71.39;101117.94;4960372;29;20065;-59
2021/12/10 00:29:24;;;;;;;19.33;11.43;;;;;;;-11.92;72.29;101106.38;4961905;29;20233;-59
2021/12/10 00:32:18;;;;;;;19.10;10.50;;;;;;;-11.89;72.59;101126.63;4956270;29;20035;-58
2021/12/10 00:35:17;;;;;;;18.60;11.13;;;;;;;-11.92;73.31;101117.22;4957954;29;20102;-59
2021/12/10 00:38:04;;;;;;;17.02;9.88;;;;;;;-11.83;71.68;101123.09;4961768;29;20027;-59
2021/12/10 00:40:51;;;;;;;18.27;10.18;;;;;;;-12.02;72.89;101119.66;4961281;29;20118;-59
2021/12/10 00:43:38;;;;;;;18.55;10.00;;;;;;;-12.42;72.96;101111.00;4946869;29;20037;-60
2021/12/10 00:46:24;;;;;;;18.35;9.93;;;;;;;-12.25;73.26;101115.94;4960036;29;20066;-59
2021/12/10 00:49:11;;;;;;;17.08;10.05;;;;;;;-12.18;73.45;101117.38;4945668;29;20055;-59
2021/12/10 00:51:58;;;;;;;19.10;10.75;;;;;;;-12.23;72.82;101133.53;4961708;29;20041;-60
2021/12/10 00:54:44;;;;;;;18.75;10.85;;;;;;;-12.21;73.06;101135.44;4951061;29;20030;-59
2021/12/10 00:57:30;;;;;;;18.48;10.38;;;;;;;-12.41;73.20;101108.66;4960918;29;20035;-59
2021/12/10 01:00:31;;;;;;;19.85;10.82;;;;;;;-12.01;72.53;101121.44;4959989;29;20359;-58
2021/12/10 01:03:20;;;;;;;19.90;11.48;;;;;;;-12.09;73.71;101127.34;4963239;28;20031;-59
2021/12/10 01:06:09;;;;;;;17.92;10.57;;;;;;;-12.48;72.07;101056.41;4959456;28;20046;-58
2021/12/10 01:09:12;;;;;;;16.00;9.68;;;;;;;-12.57;73.28;101066.41;4961259;29;20327;-57
2021/12/10 01:12:15;;;;;;;21.55;10.57;;;;;;;-12.17;73.43;101120.03;4952418;29;20027;-59
2021/12/10 01:27:31;;;;;;;19.17;11.02;;;;;;;-11.76;72.27;101139.47;4948680;28;20339;-58
2021/12/10 01:30:30;;;;;;;19.20;10.85;;;;;;;-11.83;72.55;101138.06;4960372;29;20035;-59
2021/12/10 01:33:18;;;;;;;17.67;10.48;;;;;;;-12.28;72.95;101054.84;4954911;28;20402;-57
2021/12/10 01:36:08;;;;;;;19.75;10.77;;;;;;;-11.85;72.16;101141.16;4954070;28;20110;-59
2021/12/10 01:38:55;;;;;;;19.92;10.75;;;;;;;-11.77;72.27;101139.34;4959405;29;20031;-59
2021/12/10 01:41:43;;;;;;;20.83;10.55;;;;;;;-11.99;72.25;101140.78;4958630;29;20086;-59
2021/12/10 01:44:36;;;;;;;19.42;10.05;;;;;;;-12.01;73.55;101137.28;4960854;29;20328;-58
2021/12/10 01:47:27;;;;;;;17.27;9.57;;;;;;;-12.40;74.17;101110.38;4959523;29;20031;-59
2021/12/10 01:50:14;;;;;;;18.23;10.23;;;;;;;-12.33;74.29;101150.13;4960111;29;20081;-58
2021/12/10 01:53:05;;;;;;;15.13;9.38;;;;;;;-12.27;74.40;101139.84;4951876;29;20027;-59
2021/12/10 01:55:54;;;;;;;15.48;10.20;;;;;;;-12.60;74.35;101067.75;4957096;29;20082;-59
2021/12/10 01:58:41;;;;;;;17.15;9.30;;;;;;;-12.25;73.84;101150.00;4960308;29;20035;-59
2021/12/10 02:01:40;;;;;;;11.50;6.82;;;;;;;-12.80;74.10;101151.53;4944259;28;20027;-58
2021/12/10 02:04:29;;;;;;;19.60;10.15;;;;;;;-12.57;74.56;101157.81;4955920;29;20046;-59
2021/12/10 02:07:20;;;;;;;19.60;9.50;;;;;;;-12.64;74.91;101155.50;4942867;29;20032;-60
2021/12/10 02:10:08;;;;;;;17.85;10.43;;;;;;;-13.06;74.52;101099.19;4942566;29;20039;-59
2021/12/10 02:12:55;;;;;;;21.85;10.65;;;;;;;-12.80;74.48;101151.53;4944775;29;20046;-60
2021/12/10 02:15:42;;;;;;;17.02;9.10;;;;;;;-12.69;73.55;101155.06;4958827;29;20094;-58
2021/12/10 02:18:28;;;;;;;17.35;9.95;;;;;;;-12.55;74.49;101154.75;4946583;29;20035;-58
2021/12/10 02:21:18;;;;;;;19.38;9.40;;;;;;;-13.26;74.37;101090.69;4960414;29;20023;-58
2021/12/10 02:24:04;;;;;;;23.92;11.60;;;;;;;-12.78;74.07;101161.66;4960445;29;20071;-58
2021/12/10 02:26:56;;;;;;;22.08;10.10;;;;;;;-12.90;73.93;101084.94;4956890;29;20339;-59
2021/12/10 02:29:42;;;;;;;17.73;9.98;;;;;;;-12.40;73.13;101159.41;4949547;29;20031;-59
2021/12/10 02:32:28;;;;;;;16.60;9.48;;;;;;;-12.73;73.24;101163.84;4958139;29;20039;-58
2021/12/10 02:35:15;;;;;;;19.30;10.40;;;;;;;-12.74;73.97;101148.75;4958901;29;20074;-59
2021/12/10 02:38:02;;;;;;;19.02;10.30;;;;;;;-12.93;74.04;101146.13;4958204;29;20041;-59
2021/12/10 02:40:50;;;;;;;18.88;10.07;;;;;;;-13.44;74.59;101086.47;4950211;29;20082;-58
2021/12/10 02:43:37;;;;;;;19.73;10.30;;;;;;;-13.20;75.04;101157.69;4951869;29;20257;-58
2021/12/10 02:46:24;;;;;;;17.15;10.55;;;;;;;-13.01;75.13;101155.34;4949157;29;20263;-59
2021/12/10 02:49:12;;;;;;;20.13;10.43;;;;;;;-13.18;74.67;101171.19;4953087;29;20082;-59
2021/12/10 02:51:58;;;;;;;20.60;10.32;;;;;;;-13.19;75.20;101161.94;4958788;29;20067;-59
2021/12/10 02:54:44;;;;;;;17.58;10.38;;;;;;;-13.35;75.06;101151.25;4955735;29;20503;-58
2021/12/10 02:57:30;;;;;;;21.48;10.75;;;;;;;-13.18;75.54;101171.19;4959176;29;20289;-58
2021/12/10 03:00:22;;;;;;;24.13;12.02;;;;;;;-13.22;75.75;101170.00;4944751;29;20059;-58
2021/12/10 03:03:09;;;;;;;21.08;11.60;;;;;;;-13.02;75.11;101174.41;4956428;29;20023;-58
2021/12/10 03:05:55;;;;;;;19.52;10.40;;;;;;;-13.29;74.89;101179.22;4958246;29;20279;-57
2021/12/10 03:08:44;;;;;;;18.50;11.38;;;;;;;-13.16;74.70;101179.69;4957679;29;20039;-57
2021/12/10 03:11:34;;;;;;;19.92;10.95;;;;;;;-13.23;74.21;101189.78;4958685;29;20086;-58
2021/12/10 03:14:23;;;;;;;22.08;10.35;;;;;;;-13.59;74.67;101108.28;4959106;29;20055;-57
2021/12/10 03:17:15;;;;;;;23.67;12.30;;;;;;;-13.47;74.87;101094.50;4958119;29;20027;-58
2021/12/10 03:20:06;;;;;;;20.95;11.35;;;;;;;-12.79;73.50;101202.31;4960757;28;20027;-58
2021/12/10 03:22:52;;;;;;;19.38;10.88;;;;;;;-12.71;73.72;101186.44;4958649;29;20050;-59
2021/12/10 03:25:40;;;;;;;20.88;11.38;;;;;;;-12.88;73.23;101185.72;4958968;29;20023;-59
2021/12/10 03:28:26;;;;;;;24.50;12.43;;;;;;;-12.80;73.62;101198.03;4942112;29;20344;-58
2021/12/10 03:31:13;;;;;;;20.10;12.00;;;;;;;-13.05;73.88;101191.56;4958813;29;20071;-57
2021/12/10 03:33:59;;;;;;;22.42;11.93;;;;;;;-13.13;74.76;101194.94;4942287;29;20220;-58
2021/12/10 03:36:46;;;;;;;24.55;12.07;;;;;;;-13.09;74.15;101194.50;4946855;29;20042;-59
2021/12/10 03:39:32;;;;;;;25.67;13.93;;;;;;;-12.99;74.24;101187.94;4959495;29;20087;-58
2021/12/10 03:42:20;;;;;;;24.23;12.88;;;;;;;-13.24;74.03;101118.25;4958204;29;20043;-59
2021/12/10 03:45:09;;;;;;;26.85;13.80;;;;;;;-13.25;73.89;101118.97;4954786;29;20351;-59
2021/12/10 03:47:55;;;;;;;23.23;12.65;;;;;;;-12.93;74.12;101186.00;4947800;29;20295;-59
2021/12/10 03:50:43;;;;;;;22.85;13.55;;;;;;;-12.90;74.04;101197.16;4958583;29;20067;-59
2021/12/10 03:53:29;;;;;;;29.30;14.00;;;;;;;-13.05;74.26;101184.09;4961543;29;20023;-58
2021/12/10 03:56:18;;;;;;;25.30;12.93;;;;;;;-13.10;74.76;101195.22;4960790;29;20035;-59
2021/12/10 03:59:09;;;;;;;26.05;13.40;;;;;;;-13.68;75.38;101124.78;4958715;29;20035;-59
2021/12/10 04:01:56;;;;;;;26.90;14.20;;;;;;;-13.11;75.48;101193.47;4960711;28;20344;-58
2021/12/10 04:04:46;;;;;;;28.33;14.05;;;;;;;-12.78;74.52;101206.53;4962435;29;20050;-58
2021/12/10 04:07:32;;;;;;;28.08;14.68;;;;;;;-13.01;74.48;101190.25;4962797;29;20220;-59
2021/12/10 04:10:19;;;;;;;31.33;14.80;;;;;;;-13.12;73.94;101149.34;4960683;29;20031;-58
2021/12/10 04:13:06;;;;;;;32.58;15.65;;;;;;;-12.84;73.91;101196.84;4961079;28;20035;-58
2021/12/10 04:15:52;;;;;;;31.08;15.10;;;;;;;-12.99;74.52;101190.41;4961810;29;20053;-59
2021/12/10 04:18:39;;;;;;;29.25;14.85;;;;;;;-12.82;73.92;101195.41;4962446;29;20050;-59
2021/12/10 04:21:25;;;;;;;25.85;14.32;;;;;;;-12.88;74.04;101187.31;4953937;29;20325;-60
2021/12/10 04:24:16;;;;;;;28.42;15.20;;;;;;;-12.77;73.99;101201.69;4957054;29;20039;-59
2021/12/10 04:27:05;;;;;;;31.88;14.45;;;;;;;-13.25;74.05;101141.38;4960673;29;20028;-59
2021/12/10 04:29:55;;;;;;;27.58;14.05;;;;;;;-13.06;74.64;101208.88;4961665;29;20424;-58
2021/12/10 04:32:43;;;;;;;26.35;13.82;;;;;;;-12.96;74.14;101248.91;4962001;29;20035;-59
2021/12/10 04:35:29;;;;;;;26.35;13.10;;;;;;;-13.14;75.13;101207.25;4948860;29;20062;-60
2021/12/10 04:38:17;;;;;;;28.35;13.55;;;;;;;-13.44;74.41;101136.28;4960899;29;20034;-59
2021/12/10 04:41:07;;;;;;;25.20;12.30;;;;;;;-13.25;74.46;101196.22;4961869;29;20046;-59
2021/12/10 04:43:53;;;;;;;27.50;13.52;;;;;;;-13.02;73.93;101195.97;4961913;29;20339;-58
2021/12/10 04:46:40;;;;;;;27.00;12.85;;;;;;;-13.04;74.69;101209.88;4961181;29;20357;-58
2021/12/10 04:49:26;;;;;;;24.23;12.23;;;;;;;-13.15;73.53;101208.88;4945865;29;20038;-58
2021/12/10 04:52:12;;;;;;;24.45;11.20;;;;;;;-13.39;74.26;101223.19;4947121;28;20031;-59
2021/12/10 04:54:58;;;;;;;24.67;11.80;;;;;;;-13.47;74.85;101224.03;4945351;29;20031;-57
2021/12/10 04:57:44;;;;;;;22.80;10.88;;;;;;;-13.76;74.45;101232.00;4952087;29;20031;-59
2021/12/10 05:00:35;;;;;;;22.30;10.75;;;;;;;-13.72;75.04;101233.19;4961881;29;20347;-59
2021/12/10 05:03:21;;;;;;;21.85;8.68;;;;;;;-13.82;74.50;101237.94;4955277;28;20044;-58
2021/12/10 05:06:08;;;;;;;21.08;10.43;;;;;;;-14.11;75.84;101231.78;4957334;29;20077;-58
2021/12/10 05:08:54;;;;;;;22.30;11.68;;;;;;;-13.77;75.56;101247.63;4961283;29;20097;-59
2021/12/10 05:11:41;;;;;;;21.55;10.75;;;;;;;-13.80;74.69;101249.84;4960310;29;20062;-58
2021/12/10 05:14:29;;;;;;;20.92;12.02;;;;;;;-13.86;74.77;101258.28;4958173;29;20023;-58
2021/12/10 05:17:15;;;;;;;17.17;8.88;;;;;;;-13.98;75.99;101258.78;4953658;29;20062;-58
2021/12/10 05:20:12;;;;;;;21.60;11.88;;;;;;;-13.96;76.39;101262.34;4954472;29;20042;-60
2021/12/10 05:22:58;;;;;;;25.17;12.40;;;;;;;-13.84;76.50;101244.41;4957142;29;20023;-59
2021/12/10 05:25:44;;;;;;;22.90;12.52;;;;;;;-13.47;74.87;101253.06;4956148;29;20232;-59
2021/12/10 05:28:30;;;;;;;21.73;12.07;;;;;;;-13.43;75.18;101251.00;4951290;29;20092;-59
2021/12/10 05:31:17;;;;;;;22.35;12.77;;;;;;;-13.19;74.59;101259.13;4945399;29;20179;-58
2021/12/10 05:34:03;;;;;;;21.27;11.60;;;;;;;-13.29;74.32;101268.94;4954395;29;20039;-59
2021/12/10 05:36:49;;;;;;;19.35;11.02;;;;;;;-13.32;74.14;101257.03;4955025;29;20031;-58
2021/12/10 05:39:35;;;;;;;22.38;11.02;;;;;;;-13.33;73.60;101256.91;4944876;29;20035;-58
2021/12/10 05:42:21;;;;;;;25.85;12.85;;;;;;;-13.23;73.64;101257.06;4954811;28;20404;-60
2021/12/10 05:45:08;;;;;;;19.70;11.38;;;;;;;-13.18;74.07;101255.91;4948832;29;20059;-60
2021/12/10 05:47:54;;;;;;;21.67;11.93;;;;;;;-13.13;74.28;101254.75;4951446;29;20040;-60
2021/12/10 05:50:40;;;;;;;21.58;11.32;;;;;;;-12.94;73.75;101257.41;4956972;29;20063;-59
2021/12/10 05:53:27;;;;;;;23.50;12.65;;;;;;;-12.88;73.57;101260.53;4956795;29;20050;-59
2021/12/10 05:56:13;;;;;;;23.50;12.73;;;;;;;-12.93;73.77;101264.16;4958313;29;20272;-59
2021/12/10 05:58:59;;;;;;;21.67;11.93;;;;;;;-12.82;73.57;101270.22;4960216;29;20328;-58
2021/12/10 06:01:45;;;;;;;24.95;12.93;;;;;;;-12.76;73.54;101258.34;4961293;28;20082;-58
2021/12/10 06:04:33;;;;;;;24.27;12.45;;;;;;;-12.80;73.02;101278.72;4960261;29;20027;-60
2021/12/10 06:07:19;;;;;;;23.80;12.65;;;;;;;-12.91;72.93;101262.72;4960411;29;20229;-58
2021/12/10 06:10:09;;;;;;;22.83;12.73;;;;;;;-12.93;72.86;101265.78;4961428;28;20031;-58
2021/12/10 06:12:55;;;;;;;22.08;11.70;;;;;;;-12.91;72.66;101271.78;4943864;29;20201;-59
2021/12/10 06:15:42;;;;;;;22.83;11.68;;;;;;;-13.10;73.79;101294.91;4949890;29;20035;-59
2021/12/10 06:18:28;;;;;;;23.65;10.88;;;;;;;-13.32;73.81;101296.91;4959949;29;20038;-56
2021/12/10 06:21:15;;;;;;;23.50;11.13;;;;;;;-13.33;75.18;101304.25;4959129;29;20035;-55
2021/12/10 06:24:03;;;;;;;17.95;9.85;;;;;;;-13.51;74.31;101294.19;4950133;28;20093;-56
2021/12/10 06:26:52;;;;;;;20.92;11.43;;;;;;;-13.21;74.17;101305.44;4946181;29;20046;-57
2021/12/10 06:29:41;;;;;;;21.15;10.15;;;;;;;-13.14;73.84;101301.94;4958242;29;20046;-57
2021/12/10 06:32:28;;;;;;;17.63;9.82;;;;;;;-13.00;74.05;101300.81;4955872;29;20098;-57
2021/12/10 06:35:15;;;;;;;18.50;10.30;;;;;;;-13.42;73.30;101225.38;4947847;29;20035;-57
2021/12/10 06:38:01;;;;;;;26.92;11.23;;;;;;;-12.97;72.68;101296.13;4958665;29;20333;-58
2021/12/10 06:40:48;;;;;;;24.90;9.77;;;;;;;-13.09;73.10;101319.13;4951462;29;20273;-58
2021/12/10 06:43:35;;;;;;;16.35;9.50;;;;;;;-13.24;73.27;101320.09;4948700;29;20053;-55
2021/12/10 06:46:21;;;;;;;19.52;9.93;;;;;;;-13.32;74.45;101326.81;4957393;29;20035;-56
2021/12/10 06:49:07;;;;;;;18.95;10.38;;;;;;;-12.97;74.77;101316.94;4958252;29;20359;-57
2021/12/10 06:51:53;;;;;;;20.75;9.85;;;;;;;-13.28;74.45;101303.06;4959628;29;20019;-57
2021/12/10 06:54:39;;;;;;;24.73;10.85;;;;;;;-13.58;73.81;101322.63;4952817;29;20161;-55
2021/12/10 06:57:25;;;;;;;21.58;9.98;;;;;;;-13.29;74.98;101328.72;4957578;29;20082;-54
2021/12/10 07:00:25;;;;;;;18.35;9.40;;;;;;;-13.28;74.18;101352.91;4957602;29;20082;-54
2021/12/10 07:03:14;;;;;;;21.27;10.68;;;;;;;-13.24;73.93;101353.38;4957740;29;20077;-57
2021/12/10 07:06:02;;;;;;;21.85;9.82;;;;;;;-13.47;75.32;101303.75;4951161;29;20034;-54
2021/12/10 07:08:49;;;;;;;18.17;9.95;;;;;;;-13.08;74.44;101323.38;4954922;29;20031;-54
2021/12/10 07:11:35;;;;;;;20.40;9.60;;;;;;;-12.80;74.07;101321.09;4956177;29;20027;-54
2021/12/10 07:14:21;;;;;;;20.67;10.00;;;;;;;-12.98;73.02;101310.22;4951050;28;20039;-54
2021/12/10 07:17:07;;;;;;;18.88;9.38;;;;;;;-13.19;74.61;101319.81;4953276;28;20074;-55
2021/12/10 07:19:53;;;;;;;19.98;9.68;;;;;;;-13.41;74.75;101310.97;4955141;29;20515;-55
2021/12/10 07:22:39;;;;;;;19.50;10.07;;;;;;;-13.40;73.64;101320.19;4956667;29;20097;-54
2021/12/10 07:25:26;;;;;;;20.67;9.65;;;;;;;-13.29;75.06;101317.16;4956025;28;20027;-54
2021/12/10 07:28:13;;;;;;;23.35;11.00;;;;;;;-13.40;74.20;101326.06;4961168;29;20074;-54
2021/12/10 07:31:00;;;;;;;22.40;10.35;;;;;;;-13.25;75.14;101328.28;4960896;29;20110;-55
2021/12/10 07:33:46;;;;;;;20.48;10.32;;;;;;;-13.55;74.26;101324.50;4958987;29;20591;-55
2021/12/10 07:36:33;;;;;;;19.52;10.38;;;;;;;-13.26;74.41;101329.03;4960953;29;20034;-54
2021/12/10 07:39:19;;;;;;;25.38;11.18;;;;;;;-13.50;75.23;101328.34;4962134;29;20224;-55
2021/12/10 07:42:07;;;;;;;26.52;10.55;;;;;;;-13.91;75.40;101245.38;4963566;28;20061;-56
2021/12/10 07:44:56;;;;;;;18.48;11.27;;;;;;;-13.57;74.91;101330.97;4960301;29;20293;-55
2021/12/10 07:47:42;;;;;;;20.10;10.32;;;;;;;-13.51;74.98;101325.72;4960057;29;20051;-55
2021/12/10 07:50:34;;;;;;;23.48;11.32;;;;;;;-13.62;75.38;101352.00;4959307;29;20031;-55
2021/12/10 07:53:22;;;;;;;22.95;10.00;;;;;;;-13.51;74.92;101336.53;4949513;29;20043;-54
2021/12/10 07:56:11;;;;;;;24.58;11.85;;;;;;;-13.85;75.62;101248.50;4960318;29;20095;-55
2021/12/10 07:58:58;;;;;;;19.48;9.82;;;;;;;-13.36;76.00;101329.75;4960280;29;20027;-54
2021/12/10 08:01:44;;;;;;;22.50;10.15;;;;;;;-13.59;75.35;101318.34;4960809;29;20023;-54
2021/12/10 08:04:30;;;;;;;25.25;11.95;;;;;;;-13.36;75.03;101307.31;4961571;29;20027;-55
2021/12/10 08:07:17;;;;;;;21.35;11.65;;;;;;;-13.05;75.19;101327.81;4951718;29;20042;-58
2021/12/10 08:10:06;;;;;;;27.17;12.10;;;;;;;-13.15;75.15;101303.56;4962591;29;20395;-56
2021/12/10 08:12:52;;;;;;;21.20;11.43;;;;;;;-12.64;74.70;101328.47;4954909;28;20067;-55
2021/12/10 08:15:38;;;;;;;22.70;11.40;;;;;;;-12.45;74.06;101326.16;4950389;29;20035;-55
2021/12/10 08:18:24;;;;;;;19.75;10.50;;;;;;;-12.62;73.37;101327.03;4954516;29;20058;-55
2021/12/10 08:21:10;;;;;;;19.40;11.15;;;;;;;-12.44;73.94;101327.03;4951041;29;20028;-56
2021/12/10 08:23:56;;;;;;;20.80;11.88;;;;;;;-12.52;74.38;101322.19;4953253;29;20439;-55
2021/12/10 08:26:42;;;;;;;26.60;12.85;;;;;;;-12.55;73.88;101326.03;4961234;29;20031;-55
2021/12/10 08:29:28;;;;;;;22.05;11.38;;;;;;;-12.61;73.37;101325.41;4959494;29;20039;-55
2021/12/10 08:32:19;;;;;;;19.23;10.90;;;;;;;-12.50;74.23;101325.72;4959838;29;20023;-55
2021/12/10 08:35:09;;;;;;;21.73;10.55;;;;;;;-12.40;74.51;101344.06;4953588;29;20059;-55
2021/12/10 08:37:57;;;;;;;19.85;10.80;;;;;;;-12.36;73.84;101312.06;4960118;28;20034;-55
2021/12/10 08:40:47;;;;;;;17.17;9.65;;;;;;;-12.63;73.61;101260.41;4960300;29;20031;-53
2021/12/10 08:43:34;;;;;;;22.98;10.95;;;;;;;-11.96;73.83;101326.63;4960193;29;20039;-55
2021/12/10 08:46:20;;;;;;;20.27;9.60;;;;;;;-12.25;73.18;101327.22;4959616;29;20039;-56
2021/12/10 08:49:07;;;;;;;21.58;9.40;;;;;;;-11.80;73.92;101328.19;4958910;29;20023;-56
2021/12/10 08:51:56;;;;;;;17.10;10.13;;;;;;;-11.41;71.58;101339.25;4955931;29;20035;-56
2021/12/10 08:54:43;;;;;;;20.75;10.05;;;;;;;-11.37;72.66;101316.31;4958872;29;20035;-55
2021/12/10 08:57:30;;;;;;;16.58;8.90;;;;;;;-11.72;72.29;101318.03;4959376;29;20035;-55
2021/12/10 09:00:17;;;;;;;17.00;8.57;;;;;;;-11.95;73.24;101310.88;4962246;28;20034;-55
2021/12/10 09:03:04;;;;;;;18.02;9.02;;;;;;;-11.99;73.16;101299.72;4959311;29;20031;-55
2021/12/10 09:05:50;;;;;;;16.77;8.43;;;;;;;-12.03;73.63;101315.16;4960008;29;20075;-54
2021/12/10 09:08:37;;;;;;;12.98;7.50;;;;;;;-12.00;73.88;101313.84;4956753;29;20110;-54
2021/12/10 09:11:24;;;;;;;17.50;10.05;;;;;;;-11.66;74.29;101291.97;4960686;29;20046;-54
2021/12/10 09:14:10;;;;;;;18.95;9.98;;;;;;;-11.55;73.69;101314.59;4951520;29;20435;-54
2021/12/10 09:16:58;;;;;;;14.80;6.93;;;;;;;-12.41;74.03;101235.00;4960202;28;20032;-54
2021/12/10 09:19:44;;;;;;;16.23;8.70;;;;;;;-12.00;74.76;101316.34;4946387;29;20082;-55
2021/12/10 09:22:30;;;;;;;20.27;9.52;;;;;;;-11.85;75.37;101306.88;4960221;29;20092;-53
2021/12/10 09:25:17;;;;;;;11.57;6.97;;;;;;;-11.96;75.42;101296.66;4959333;29;20384;-55
2021/12/10 09:28:05;;;;;;;16.65;9.68;;;;;;;-11.94;75.93;101313.53;4957069;29;20058;-54
2021/12/10 09:30:54;;;;;;;16.35;9.88;;;;;;;-11.80;74.92;101307.28;4949084;29;20050;-55
2021/12/10 09:33:42;;;;;;;20.92;9.93;;;;;;;-11.98;75.96;101304.88;4959362;29;20588;-55
2021/12/10 09:36:29;;;;;;;13.57;7.10;;;;;;;-11.98;76.06;101317.34;4960707;29;20066;-55
2021/12/10 09:39:18;;;;;;;21.50;9.52;;;;;;;-11.80;75.89;101318.19;4959127;29;20042;-55
2021/12/10 09:42:07;;;;;;;14.55;8.05;;;;;;;-12.20;76.28;101247.06;4955402;29;20074;-55
2021/12/10 09:44:54;;;;;;;19.90;8.85;;;;;;;-11.74;75.88;101317.88;4955135;29;20598;-54
2021/12/10 09:47:40;;;;;;;16.48;8.73;;;;;;;-11.56;76.08;101312.84;4957732;29;20030;-57
2021/12/10 09:50:32;;;;;;;16.60;9.55;;;;;;;-12.18;75.87;101244.69;4958155;29;20363;-55
2021/12/10 09:53:18;;;;;;;17.67;10.05;;;;;;;-11.66;76.64;101296.97;4959463;28;20073;-55
2021/12/10 09:56:05;;;;;;;18.33;10.30;;;;;;;-11.36;76.41;101304.69;4954594;28;20039;-55
2021/12/10 09:58:56;;;;;;;16.17;9.00;;;;;;;-11.41;75.81;101311.78;4954461;29;20046;-54
2021/12/10 10:01:47;;;;;;;17.92;10.55;;;;;;;-11.46;76.43;101331.34;4959469;29;20043;-55
2021/12/10 10:04:35;;;;;;;18.38;8.80;;;;;;;-11.41;75.21;101311.78;4947054;28;20027;-54
2021/12/10 10:07:26;;;;;;;18.70;9.57;;;;;;;-11.17;75.16;101330.66;4945572;29;20027;-55
2021/12/10 10:10:15;;;;;;;17.63;9.10;;;;;;;-11.11;74.29;101308.69;4960168;29;20109;-55
2021/12/10 10:13:03;;;;;;;14.35;9.38;;;;;;;-11.41;75.45;101246.78;4959878;29;20034;-54
2021/12/10 10:15:53;;;;;;;20.80;11.18;;;;;;;-11.52;74.32;101225.78;4959571;29;20110;-55
2021/12/10 10:18:41;;;;;;;17.25;10.00;;;;;;;-10.99;74.32;101311.44;4942593;29;20042;-55
2021/12/10 10:21:35;;;;;;;18.70;9.52;;;;;;;-10.82;74.87;101299.59;4958886;29;20342;-54
2021/12/10 10:24:23;;;;;;;16.80;9.63;;;;;;;-11.08;74.10;101227.22;4958186;29;20095;-55
2021/12/10 10:27:14;;;;;;;16.40;10.68;;;;;;;-10.99;72.32;101240.53;4956840;29;20047;-56
2021/12/10 10:30:22;;;;;;;15.70;7.68;;;;;;;-11.06;73.20;101306.59;4958284;29;20039;-55
2021/12/10 10:33:09;;;;;;;18.95;10.25;;;;;;;-10.68;72.36;101314.22;4948108;29;20044;-55
2021/12/10 10:36:01;;;;;;;21.20;9.93;;;;;;;-10.80;72.76;101333.09;4946575;29;20221;-54
2021/12/10 10:38:55;;;;;;;16.88;10.05;;;;;;;-10.91;74.13;101317.16;4951116;29;20106;-55
2021/12/10 10:41:43;;;;;;;18.88;11.05;;;;;;;-11.06;74.90;101331.63;4958044;29;20260;-55
2021/12/10 10:44:30;;;;;;;16.42;10.27;;;;;;;-10.81;74.55;101322.22;4959386;29;20034;-55
2021/12/10 10:47:16;;;;;;;19.80;10.60;;;;;;;-10.93;73.97;101319.50;4959793;28;20031;-56
2021/12/10 10:50:25;;;;;;;20.38;10.30;;;;;;;-10.72;74.06;101317.16;4959709;29;20039;-55
2021/12/10 10:53:13;;;;;;;20.23;10.38;;;;;;;-11.41;73.44;101241.78;4957768;29;20023;-54
2021/12/10 10:56:11;;;;;;;20.15;10.85;;;;;;;-11.19;72.93;101273.75;4953227;29;20031;-54
2021/12/10 10:59:01;;;;;;;19.08;10.35;;;;;;;-10.61;72.41;101339.03;4960010;29;20159;-55
2021/12/10 11:01:58;;;;;;;15.52;8.40;;;;;;;-10.78;73.08;101332.50;4944553;29;20178;-55
2021/12/10 11:04:49;;;;;;;17.23;10.00;;;;;;;-11.23;73.34;101264.19;4951020;29;20031;-55
2021/12/10 11:07:45;;;;;;;16.65;10.30;;;;;;;-11.21;72.87;101262.72;4948364;29;20210;-55
2021/12/10 11:10:39;;;;;;;18.45;10.02;;;;;;;-10.68;72.83;101351.75;4962909;29;20042;-55
2021/12/10 11:13:26;;;;;;;24.83;9.50;;;;;;;-10.97;72.32;101296.59;4960108;29;20019;-54
2021/12/10 11:16:19;;;;;;;19.15;9.65;;;;;;;-10.66;73.04;101322.75;4954418;29;20429;-54
2021/12/10 11:19:07;;;;;;;19.20;10.00;;;;;;;-11.39;73.60;101230.28;4953633;29;20024;-55
2021/12/10 11:22:12;;;;;;;17.00;9.82;;;;;;;-10.74;73.32;101306.16;4947945;29;20404;-55
2021/12/10 11:25:03;;;;;;;16.73;9.23;;;;;;;-10.82;73.28;101282.06;4955788;29;20339;-55
2021/12/10 11:27:50;;;;;;;18.50;9.88;;;;;;;-10.60;73.49;101320.78;4960612;29;20047;-56
2021/12/10 11:30:41;;;;;;;13.55;8.27;;;;;;;-11.05;71.37;101255.84;4963363;29;20110;-55
2021/12/10 11:33:27;;;;;;;;;;;;;;;-10.59;72.76;101331.66;4960898;29;20043;-55
2021/12/10 11:36:17;;;;;;;19.05;10.02;;;;;;;-10.57;72.17;101361.84;4962346;29;19920;-56
2021/12/10 11:39:04;;;;;;;21.53;10.77;;;;;;;-10.55;72.65;101331.22;4961657;29;20039;-54
2021/12/10 11:41:51;;;;;;;18.45;10.43;;;;;;;-10.59;72.73;101329.16;4961605;29;20924;-55
2021/12/10 11:45:04;;;;;;;18.67;10.93;;;;;;;-10.46;71.73;101324.53;4961793;29;20042;-55
2021/12/10 11:47:51;;;;;;;20.67;9.77;;;;;;;-10.72;70.88;101324.69;4946398;29;20082;-55
2021/12/10 11:50:55;;;;;;;20.42;11.35;;;;;;;-10.50;71.43;101364.16;4947016;29;20027;-56
2021/12/10 11:53:54;;;;;;;15.73;8.88;;;;;;;-10.91;72.33;101308.75;4955113;29;20039;-55
2021/12/10 11:56:46;;;;;;;16.00;10.30;;;;;;;-10.84;70.74;101266.06;4960968;29;20026;-56
2021/12/10 11:59:37;;;;;;;17.73;9.48;;;;;;;-10.88;70.82;101319.06;4960384;29;20050;-56
2021/12/10 12:02:30;;;;;;;12.52;8.60;;;;;;;-11.06;73.26;101339.13;4960719;28;20039;-56
2021/12/10 12:05:23;;;;;;;16.10;9.13;;;;;;;-10.98;73.75;101313.19;4955783;29;20035;-55
2021/12/10 12:08:16;;;;;;;15.93;9.93;;;;;;;-11.36;72.24;101245.56;4960226;29;20039;-55
2021/12/10 12:11:02;;;;;;;19.65;9.82;;;;;;;-10.73;72.58;101329.56;4949148;29;20237;-56
2021/12/10 12:13:57;;;;;;;15.68;9.25;;;;;;;-10.82;72.04;101320.47;4956717;29;20083;-55
2021/12/10 12:16:42;;;;;;;20.92;11.40;;;;;;;-10.81;73.66;101309.72;4959155;29;20316;-56
2021/12/10 12:19:32;;;;;;;19.65;10.85;;;;;;;-10.54;71.41;101317.09;4945576;29;20364;-56
2021/12/10 12:25:25;;;;;;;21.23;11.55;;;;;;;-10.61;72.12;101348.19;4961992;28;20031;-56
2021/12/10 12:28:15;;;;;;;18.25;11.18;;;;;;;-10.61;72.66;101361.56;4961720;29;20032;-55
2021/12/10 12:31:10;;;;;;;23.98;13.05;;;;;;;-10.66;72.02;101355.28;4947731;29;20066;-55
2021/12/10 12:34:02;;;;;;;20.35;10.98;;;;;;;-10.87;73.50;101343.31;4959819;29;20066;-56
2021/12/10 12:36:51;;;;;;;22.25;11.60;;;;;;;-10.77;73.13;101341.78;4958774;29;20027;-55
2021/12/10 12:39:46;;;;;;;23.33;12.63;;;;;;;-10.84;73.23;101319.47;4958646;29;20050;-57
2021/12/10 12:42:39;;;;;;;22.05;11.55;;;;;;;-11.32;71.83;101249.25;4954747;29;20047;-57
2021/12/10 12:45:26;;;;;;;25.42;12.18;;;;;;;-10.67;72.49;101341.00;4959256;29;20031;-57
2021/12/10 12:48:14;;;;;;;23.05;11.65;;;;;;;-10.68;71.54;101341.75;4955994;29;20328;-55
2021/12/10 12:51:11;;;;;;;19.10;11.20;;;;;;;-10.81;72.27;101346.38;4960410;29;20039;-55
2021/12/10 12:53:57;;;;;;;21.15;11.95;;;;;;;-10.56;72.49;101346.97;4956497;29;20035;-56
2021/12/10 12:56:43;;;;;;;19.52;11.80;;;;;;;-10.71;72.94;101348.97;4958522;29;20431;-56